sensor_id;sensor_type;location;lat;lon;timestamp;temperature;humidity
530;DHT22;251;48.704;9.210;2023-11-22T00:01:50;7.40;99.90
530;DHT22;251;48.704;9.210;2023-11-22T00:04:17;7.30;99.90
530;DHT22;251;48.704;9.210;2023-11-22T00:06:45;7.40;99.90
530;DHT22;251;48.704;9.210;2023-11-22T00:09:12;7.40;99.90
530;DHT22;251;48.704;9.210;2023-11-22T00:11:40;7.40;99.90
530;DHT22;251;48.704;9.210;2023-11-22T00:14:06;7.40;99.90
530;DHT22;251;48.704;9.210;2023-11-22T00:16:33;7.30;99.90
530;DHT22;251;48.704;9.210;2023-11-22T00:19:02;7.30;99.90
530;DHT22;251;48.704;9.210;2023-11-22T00:21:30;7.30;99.90
530;DHT22;251;48.704;9.210;2023-11-22T00:23:58;7.30;99.90
530;DHT22;251;48.704;9.210;2023-11-22T00:26:25;7.30;99.90
530;DHT22;251;48.704;9.210;2023-11-22T00:28:56;7.30;99.90
530;DHT22;251;48.704;9.210;2023-11-22T00:31:24;7.20;99.90
530;DHT22;251;48.704;9.210;2023-11-22T00:33:50;7.00;97.70
530;DHT22;251;48.704;9.210;2023-11-22T00:36:17;6.90;97.00
530;DHT22;251;48.704;9.210;2023-11-22T00:38:45;6.80;97.00
530;DHT22;251;48.704;9.210;2023-11-22T00:41:13;6.70;97.00
530;DHT22;251;48.704;9.210;2023-11-22T00:43:41;6.60;96.50
530;DHT22;251;48.704;9.210;2023-11-22T00:46:08;6.50;97.00
530;DHT22;251;48.704;9.210;2023-11-22T00:48:34;6.40;95.60
530;DHT22;251;48.704;9.210;2023-11-22T00:51:01;6.30;96.70
530;DHT22;251;48.704;9.210;2023-11-22T00:53:34;6.20;95.50
530;DHT22;251;48.704;9.210;2023-11-22T00:56:02;6.20;94.50
530;DHT22;251;48.704;9.210;2023-11-22T00:58:31;6.10;94.70
530;DHT22;251;48.704;9.210;2023-11-22T01:00:58;6.00;94.20
530;DHT22;251;48.704;9.210;2023-11-22T01:03:25;5.90;92.00
530;DHT22;251;48.704;9.210;2023-11-22T01:05:51;5.90;94.00
530;DHT22;251;48.704;9.210;2023-11-22T01:08:18;5.80;93.10
530;DHT22;251;48.704;9.210;2023-11-22T01:10:45;5.70;93.30
530;DHT22;251;48.704;9.210;2023-11-22T01:13:12;5.70;92.50
530;DHT22;251;48.704;9.210;2023-11-22T01:15:40;5.70;92.30
530;DHT22;251;48.704;9.210;2023-11-22T01:18:07;5.60;90.10
530;DHT22;251;48.704;9.210;2023-11-22T01:20:35;5.50;90.60
530;DHT22;251;48.704;9.210;2023-11-22T01:23:02;5.50;91.30
530;DHT22;251;48.704;9.210;2023-11-22T01:25:29;5.40;90.30
530;DHT22;251;48.704;9.210;2023-11-22T01:27:56;5.40;89.50
530;DHT22;251;48.704;9.210;2023-11-22T01:30:23;5.40;90.60
530;DHT22;251;48.704;9.210;2023-11-22T01:32:51;5.40;85.20
530;DHT22;251;48.704;9.210;2023-11-22T01:35:18;5.40;88.50
530;DHT22;251;48.704;9.210;2023-11-22T01:37:44;5.40;88.70
530;DHT22;251;48.704;9.210;2023-11-22T01:40:12;5.40;90.70
530;DHT22;251;48.704;9.210;2023-11-22T01:42:39;5.40;92.30
530;DHT22;251;48.704;9.210;2023-11-22T01:45:07;5.50;93.70
530;DHT22;251;48.704;9.210;2023-11-22T01:47:35;5.40;93.10
530;DHT22;251;48.704;9.210;2023-11-22T01:50:03;5.50;93.30
530;DHT22;251;48.704;9.210;2023-11-22T01:52:31;5.50;94.30
530;DHT22;251;48.704;9.210;2023-11-22T01:54:58;5.40;91.20
530;DHT22;251;48.704;9.210;2023-11-22T01:57:25;5.40;92.80
530;DHT22;251;48.704;9.210;2023-11-22T01:59:52;5.30;92.80
530;DHT22;251;48.704;9.210;2023-11-22T02:02:20;5.20;92.30
530;DHT22;251;48.704;9.210;2023-11-22T02:04:46;5.20;91.60
530;DHT22;251;48.704;9.210;2023-11-22T02:07:14;5.10;90.80
530;DHT22;251;48.704;9.210;2023-11-22T02:09:42;5.10;94.30
530;DHT22;251;48.704;9.210;2023-11-22T02:12:09;5.00;94.00
530;DHT22;251;48.704;9.210;2023-11-22T02:14:35;5.00;93.40
530;DHT22;251;48.704;9.210;2023-11-22T02:17:03;5.00;94.00
530;DHT22;251;48.704;9.210;2023-11-22T02:19:30;5.00;94.00
530;DHT22;251;48.704;9.210;2023-11-22T02:21:57;5.00;95.00
530;DHT22;251;48.704;9.210;2023-11-22T02:24:26;5.00;93.80
530;DHT22;251;48.704;9.210;2023-11-22T02:26:53;4.90;91.00
530;DHT22;251;48.704;9.210;2023-11-22T02:29:20;4.80;85.30
530;DHT22;251;48.704;9.210;2023-11-22T02:31:47;4.80;86.90
530;DHT22;251;48.704;9.210;2023-11-22T02:34:14;4.70;85.10
530;DHT22;251;48.704;9.210;2023-11-22T02:36:42;4.70;83.20
530;DHT22;251;48.704;9.210;2023-11-22T02:39:09;4.70;82.20
530;DHT22;251;48.704;9.210;2023-11-22T02:41:38;4.70;84.30
530;DHT22;251;48.704;9.210;2023-11-22T02:44:05;4.60;82.50
530;DHT22;251;48.704;9.210;2023-11-22T02:46:32;4.60;72.90
530;DHT22;251;48.704;9.210;2023-11-22T02:49:00;4.50;72.00
530;DHT22;251;48.704;9.210;2023-11-22T02:51:26;4.50;68.80
530;DHT22;251;48.704;9.210;2023-11-22T02:53:53;4.40;72.60
530;DHT22;251;48.704;9.210;2023-11-22T02:56:20;4.40;75.80
530;DHT22;251;48.704;9.210;2023-11-22T02:58:52;4.40;69.90
530;DHT22;251;48.704;9.210;2023-11-22T03:01:19;4.40;73.90
530;DHT22;251;48.704;9.210;2023-11-22T03:03:46;4.40;72.00
530;DHT22;251;48.704;9.210;2023-11-22T03:06:16;4.40;72.70
530;DHT22;251;48.704;9.210;2023-11-22T03:08:42;4.40;73.60
530;DHT22;251;48.704;9.210;2023-11-22T03:11:10;4.40;74.20
530;DHT22;251;48.704;9.210;2023-11-22T03:13:36;4.40;71.20
530;DHT22;251;48.704;9.210;2023-11-22T03:16:06;4.40;72.20
530;DHT22;251;48.704;9.210;2023-11-22T03:18:34;4.30;70.50
530;DHT22;251;48.704;9.210;2023-11-22T03:21:01;4.30;69.90
530;DHT22;251;48.704;9.210;2023-11-22T03:23:28;4.20;71.00
530;DHT22;251;48.704;9.210;2023-11-22T03:25:55;4.20;68.80
530;DHT22;251;48.704;9.210;2023-11-22T03:28:21;4.10;72.20
530;DHT22;251;48.704;9.210;2023-11-22T03:30:48;4.10;72.50
530;DHT22;251;48.704;9.210;2023-11-22T03:33:16;4.10;70.70
530;DHT22;251;48.704;9.210;2023-11-22T03:35:43;4.10;71.40
530;DHT22;251;48.704;9.210;2023-11-22T03:38:10;4.00;69.60
530;DHT22;251;48.704;9.210;2023-11-22T03:40:37;4.00;66.80
530;DHT22;251;48.704;9.210;2023-11-22T03:43:04;4.00;64.30
530;DHT22;251;48.704;9.210;2023-11-22T03:45:31;3.90;66.60
530;DHT22;251;48.704;9.210;2023-11-22T03:47:59;3.90;59.30
530;DHT22;251;48.704;9.210;2023-11-22T03:50:27;3.90;58.80
530;DHT22;251;48.704;9.210;2023-11-22T03:52:54;3.80;59.50
530;DHT22;251;48.704;9.210;2023-11-22T03:55:21;3.70;60.00
530;DHT22;251;48.704;9.210;2023-11-22T03:57:48;3.70;59.20
530;DHT22;251;48.704;9.210;2023-11-22T04:00:16;3.70;60.20
530;DHT22;251;48.704;9.210;2023-11-22T04:02:43;3.70;55.40
530;DHT22;251;48.704;9.210;2023-11-22T04:05:10;3.70;56.70
530;DHT22;251;48.704;9.210;2023-11-22T04:07:39;3.60;51.00
530;DHT22;251;48.704;9.210;2023-11-22T04:10:06;3.60;53.30
530;DHT22;251;48.704;9.210;2023-11-22T04:12:34;3.60;52.10
530;DHT22;251;48.704;9.210;2023-11-22T04:15:00;3.60;48.90
530;DHT22;251;48.704;9.210;2023-11-22T04:17:27;3.60;51.00
530;DHT22;251;48.704;9.210;2023-11-22T04:19:54;3.60;50.00
530;DHT22;251;48.704;9.210;2023-11-22T04:22:21;3.70;51.00
530;DHT22;251;48.704;9.210;2023-11-22T04:24:49;3.60;43.70
530;DHT22;251;48.704;9.210;2023-11-22T04:27:16;3.50;46.10
530;DHT22;251;48.704;9.210;2023-11-22T04:29:42;3.60;47.80
530;DHT22;251;48.704;9.210;2023-11-22T04:32:09;3.60;46.60
530;DHT22;251;48.704;9.210;2023-11-22T04:34:36;3.50;47.70
530;DHT22;251;48.704;9.210;2023-11-22T04:37:03;3.60;49.30
530;DHT22;251;48.704;9.210;2023-11-22T04:39:31;3.50;48.40
530;DHT22;251;48.704;9.210;2023-11-22T04:41:59;3.60;47.60
530;DHT22;251;48.704;9.210;2023-11-22T04:44:26;3.50;48.30
530;DHT22;251;48.704;9.210;2023-11-22T04:46:52;3.50;47.50
530;DHT22;251;48.704;9.210;2023-11-22T04:49:19;3.50;48.70
530;DHT22;251;48.704;9.210;2023-11-22T04:51:46;3.50;45.40
530;DHT22;251;48.704;9.210;2023-11-22T04:54:13;3.50;45.70
530;DHT22;251;48.704;9.210;2023-11-22T04:56:40;3.50;43.40
530;DHT22;251;48.704;9.210;2023-11-22T04:59:08;3.50;42.70
530;DHT22;251;48.704;9.210;2023-11-22T05:01:35;3.50;41.70
530;DHT22;251;48.704;9.210;2023-11-22T05:04:02;3.50;42.50
530;DHT22;251;48.704;9.210;2023-11-22T05:06:29;3.50;41.70
530;DHT22;251;48.704;9.210;2023-11-22T05:08:56;3.50;42.10
530;DHT22;251;48.704;9.210;2023-11-22T05:11:22;3.50;43.00
530;DHT22;251;48.704;9.210;2023-11-22T05:13:50;3.50;40.70
530;DHT22;251;48.704;9.210;2023-11-22T05:16:17;3.50;44.10
530;DHT22;251;48.704;9.210;2023-11-22T05:18:44;3.50;42.40
530;DHT22;251;48.704;9.210;2023-11-22T05:21:10;3.50;40.70
530;DHT22;251;48.704;9.210;2023-11-22T05:23:37;3.50;40.10
530;DHT22;251;48.704;9.210;2023-11-22T05:26:04;3.50;39.60
530;DHT22;251;48.704;9.210;2023-11-22T05:28:31;3.50;39.30
530;DHT22;251;48.704;9.210;2023-11-22T05:30:59;3.50;40.00
530;DHT22;251;48.704;9.210;2023-11-22T05:33:27;3.40;39.50
530;DHT22;251;48.704;9.210;2023-11-22T05:35:54;3.40;39.10
530;DHT22;251;48.704;9.210;2023-11-22T05:38:20;3.40;39.00
530;DHT22;251;48.704;9.210;2023-11-22T05:40:47;3.40;39.20
530;DHT22;251;48.704;9.210;2023-11-22T05:43:14;3.40;39.00
530;DHT22;251;48.704;9.210;2023-11-22T05:45:41;3.40;39.10
530;DHT22;251;48.704;9.210;2023-11-22T05:48:07;3.40;38.10
530;DHT22;251;48.704;9.210;2023-11-22T05:50:35;3.40;40.00
530;DHT22;251;48.704;9.210;2023-11-22T05:53:02;3.40;38.40
530;DHT22;251;48.704;9.210;2023-11-22T05:55:29;3.40;40.10
530;DHT22;251;48.704;9.210;2023-11-22T05:57:56;3.40;37.90
530;DHT22;251;48.704;9.210;2023-11-22T06:00:23;3.40;40.50
530;DHT22;251;48.704;9.210;2023-11-22T06:02:49;3.40;38.70
530;DHT22;251;48.704;9.210;2023-11-22T06:05:17;3.40;37.70
530;DHT22;251;48.704;9.210;2023-11-22T06:07:45;3.40;37.90
530;DHT22;251;48.704;9.210;2023-11-22T06:10:13;3.40;38.50
530;DHT22;251;48.704;9.210;2023-11-22T06:12:41;3.40;37.00
530;DHT22;251;48.704;9.210;2023-11-22T06:15:09;3.40;38.80
530;DHT22;251;48.704;9.210;2023-11-22T06:17:36;3.40;38.10
530;DHT22;251;48.704;9.210;2023-11-22T06:20:04;3.40;38.00
530;DHT22;251;48.704;9.210;2023-11-22T06:22:32;3.40;39.00
530;DHT22;251;48.704;9.210;2023-11-22T06:25:00;3.40;39.20
530;DHT22;251;48.704;9.210;2023-11-22T06:27:27;3.40;40.90
530;DHT22;251;48.704;9.210;2023-11-22T06:29:54;3.40;40.70
530;DHT22;251;48.704;9.210;2023-11-22T06:32:21;3.40;41.10
530;DHT22;251;48.704;9.210;2023-11-22T06:34:48;3.40;39.90
530;DHT22;251;48.704;9.210;2023-11-22T06:37:15;3.40;38.00
530;DHT22;251;48.704;9.210;2023-11-22T06:39:42;3.30;40.50
530;DHT22;251;48.704;9.210;2023-11-22T06:42:11;3.40;42.50
530;DHT22;251;48.704;9.210;2023-11-22T06:44:38;3.40;45.50
530;DHT22;251;48.704;9.210;2023-11-22T06:47:06;3.50;45.50
530;DHT22;251;48.704;9.210;2023-11-22T06:49:34;3.50;46.60
530;DHT22;251;48.704;9.210;2023-11-22T06:52:00;3.50;46.90
530;DHT22;251;48.704;9.210;2023-11-22T06:54:27;3.60;49.50
530;DHT22;251;48.704;9.210;2023-11-22T06:56:54;3.60;48.00
530;DHT22;251;48.704;9.210;2023-11-22T06:59:22;3.60;46.90
530;DHT22;251;48.704;9.210;2023-11-22T07:01:49;3.60;48.80
530;DHT22;251;48.704;9.210;2023-11-22T07:04:16;3.60;48.80
530;DHT22;251;48.704;9.210;2023-11-22T07:06:43;3.50;47.90
530;DHT22;251;48.704;9.210;2023-11-22T07:09:09;3.50;49.00
530;DHT22;251;48.704;9.210;2023-11-22T07:11:37;3.50;49.60
530;DHT22;251;48.704;9.210;2023-11-22T07:14:04;3.50;46.70
530;DHT22;251;48.704;9.210;2023-11-22T07:16:32;3.50;44.90
530;DHT22;251;48.704;9.210;2023-11-22T07:18:59;3.50;46.30
530;DHT22;251;48.704;9.210;2023-11-22T07:21:28;3.50;45.80
530;DHT22;251;48.704;9.210;2023-11-22T07:23:55;3.50;45.20
530;DHT22;251;48.704;9.210;2023-11-22T07:26:22;3.50;43.10
530;DHT22;251;48.704;9.210;2023-11-22T07:28:49;3.50;43.50
530;DHT22;251;48.704;9.210;2023-11-22T07:31:17;3.40;45.00
530;DHT22;251;48.704;9.210;2023-11-22T07:33:46;3.40;45.40
530;DHT22;251;48.704;9.210;2023-11-22T07:36:13;3.40;43.60
530;DHT22;251;48.704;9.210;2023-11-22T07:38:41;3.40;42.70
530;DHT22;251;48.704;9.210;2023-11-22T07:41:08;3.40;42.60
530;DHT22;251;48.704;9.210;2023-11-22T07:43:35;3.40;41.80
530;DHT22;251;48.704;9.210;2023-11-22T07:46:05;3.30;41.30
530;DHT22;251;48.704;9.210;2023-11-22T07:48:34;3.30;41.20
530;DHT22;251;48.704;9.210;2023-11-22T07:51:04;3.20;39.40
530;DHT22;251;48.704;9.210;2023-11-22T07:53:32;3.20;39.90
530;DHT22;251;48.704;9.210;2023-11-22T07:55:59;3.20;38.80
530;DHT22;251;48.704;9.210;2023-11-22T07:58:29;3.10;38.80
530;DHT22;251;48.704;9.210;2023-11-22T08:00:57;3.10;39.10
530;DHT22;251;48.704;9.210;2023-11-22T08:03:25;3.10;37.60
530;DHT22;251;48.704;9.210;2023-11-22T08:05:52;3.10;38.80
530;DHT22;251;48.704;9.210;2023-11-22T08:08:22;3.10;40.20
530;DHT22;251;48.704;9.210;2023-11-22T08:10:51;3.20;38.40
530;DHT22;251;48.704;9.210;2023-11-22T08:13:19;3.10;37.90
530;DHT22;251;48.704;9.210;2023-11-22T08:15:48;3.10;36.80
530;DHT22;251;48.704;9.210;2023-11-22T08:18:15;3.10;38.20
530;DHT22;251;48.704;9.210;2023-11-22T08:20:43;3.10;38.10
530;DHT22;251;48.704;9.210;2023-11-22T08:23:09;3.10;38.00
530;DHT22;251;48.704;9.210;2023-11-22T08:25:39;3.10;39.10
530;DHT22;251;48.704;9.210;2023-11-22T08:28:06;3.10;39.50
530;DHT22;251;48.704;9.210;2023-11-22T08:30:33;3.10;38.50
530;DHT22;251;48.704;9.210;2023-11-22T08:33:01;3.20;39.10
530;DHT22;251;48.704;9.210;2023-11-22T08:35:28;3.10;36.40
530;DHT22;251;48.704;9.210;2023-11-22T08:37:55;3.10;38.80
530;DHT22;251;48.704;9.210;2023-11-22T08:40:23;3.20;38.60
530;DHT22;251;48.704;9.210;2023-11-22T08:42:52;3.20;37.40
530;DHT22;251;48.704;9.210;2023-11-22T08:45:20;3.20;36.80
530;DHT22;251;48.704;9.210;2023-11-22T08:47:46;3.10;36.70
530;DHT22;251;48.704;9.210;2023-11-22T08:50:13;3.20;36.60
530;DHT22;251;48.704;9.210;2023-11-22T08:52:41;3.20;36.30
530;DHT22;251;48.704;9.210;2023-11-22T08:55:11;3.10;37.10
530;DHT22;251;48.704;9.210;2023-11-22T08:57:40;3.10;37.00
530;DHT22;251;48.704;9.210;2023-11-22T09:00:09;3.20;36.30
530;DHT22;251;48.704;9.210;2023-11-22T09:02:40;3.20;36.20
530;DHT22;251;48.704;9.210;2023-11-22T09:05:07;3.20;37.70
530;DHT22;251;48.704;9.210;2023-11-22T09:07:35;3.20;35.90
530;DHT22;251;48.704;9.210;2023-11-22T09:10:03;3.20;36.70
530;DHT22;251;48.704;9.210;2023-11-22T09:12:35;3.20;34.60
530;DHT22;251;48.704;9.210;2023-11-22T09:15:03;3.20;34.00
530;DHT22;251;48.704;9.210;2023-11-22T09:17:36;3.20;35.00
530;DHT22;251;48.704;9.210;2023-11-22T09:20:06;3.20;35.90
530;DHT22;251;48.704;9.210;2023-11-22T09:22:38;3.30;35.40
530;DHT22;251;48.704;9.210;2023-11-22T09:25:11;3.20;33.40
530;DHT22;251;48.704;9.210;2023-11-22T09:27:37;3.20;34.60
530;DHT22;251;48.704;9.210;2023-11-22T09:30:06;3.30;36.80
530;DHT22;251;48.704;9.210;2023-11-22T09:32:44;3.30;34.00
530;DHT22;251;48.704;9.210;2023-11-22T09:35:12;3.30;34.50
530;DHT22;251;48.704;9.210;2023-11-22T09:37:39;3.30;34.30
530;DHT22;251;48.704;9.210;2023-11-22T09:40:10;3.30;33.20
530;DHT22;251;48.704;9.210;2023-11-22T09:42:38;3.40;32.70
530;DHT22;251;48.704;9.210;2023-11-22T09:45:07;3.40;32.30
530;DHT22;251;48.704;9.210;2023-11-22T09:47:35;3.40;32.70
530;DHT22;251;48.704;9.210;2023-11-22T09:50:06;3.40;33.00
530;DHT22;251;48.704;9.210;2023-11-22T09:52:38;3.50;33.30
530;DHT22;251;48.704;9.210;2023-11-22T09:55:09;3.40;32.50
530;DHT22;251;48.704;9.210;2023-11-22T09:57:51;3.40;31.50
530;DHT22;251;48.704;9.210;2023-11-22T10:00:22;3.50;33.00
530;DHT22;251;48.704;9.210;2023-11-22T10:02:58;3.60;34.00
530;DHT22;251;48.704;9.210;2023-11-22T10:05:26;3.70;35.30
530;DHT22;251;48.704;9.210;2023-11-22T10:07:54;3.70;32.70
530;DHT22;251;48.704;9.210;2023-11-22T10:10:22;3.70;32.00
530;DHT22;251;48.704;9.210;2023-11-22T10:12:54;3.70;30.70
530;DHT22;251;48.704;9.210;2023-11-22T10:15:22;3.70;31.30
530;DHT22;251;48.704;9.210;2023-11-22T10:17:54;3.70;30.20
530;DHT22;251;48.704;9.210;2023-11-22T10:20:23;3.60;30.30
530;DHT22;251;48.704;9.210;2023-11-22T10:22:52;3.70;31.30
530;DHT22;251;48.704;9.210;2023-11-22T10:25:20;3.60;30.40
530;DHT22;251;48.704;9.210;2023-11-22T10:27:48;3.70;31.00
530;DHT22;251;48.704;9.210;2023-11-22T10:30:17;3.70;29.80
530;DHT22;251;48.704;9.210;2023-11-22T10:32:44;3.70;30.10
530;DHT22;251;48.704;9.210;2023-11-22T10:35:11;3.70;29.90
530;DHT22;251;48.704;9.210;2023-11-22T10:37:41;3.70;30.10
530;DHT22;251;48.704;9.210;2023-11-22T10:40:12;3.70;31.00
530;DHT22;251;48.704;9.210;2023-11-22T10:42:41;3.80;32.20
530;DHT22;251;48.704;9.210;2023-11-22T10:45:09;3.90;29.40
530;DHT22;251;48.704;9.210;2023-11-22T10:47:37;3.90;29.20
530;DHT22;251;48.704;9.210;2023-11-22T10:50:05;3.90;28.50
530;DHT22;251;48.704;9.210;2023-11-22T10:52:35;4.00;29.30
530;DHT22;251;48.704;9.210;2023-11-22T10:55:04;4.10;29.40
530;DHT22;251;48.704;9.210;2023-11-22T10:57:39;4.20;30.70
530;DHT22;251;48.704;9.210;2023-11-22T11:00:08;4.30;29.30
530;DHT22;251;48.704;9.210;2023-11-22T11:02:41;4.20;28.60
530;DHT22;251;48.704;9.210;2023-11-22T11:05:14;4.30;29.50
530;DHT22;251;48.704;9.210;2023-11-22T11:07:43;4.30;28.90
530;DHT22;251;48.704;9.210;2023-11-22T11:10:12;4.40;27.90
530;DHT22;251;48.704;9.210;2023-11-22T11:12:41;4.30;27.80
530;DHT22;251;48.704;9.210;2023-11-22T11:15:09;4.40;27.40
530;DHT22;251;48.704;9.210;2023-11-22T11:17:39;4.40;28.30
530;DHT22;251;48.704;9.210;2023-11-22T11:20:07;4.40;27.70
530;DHT22;251;48.704;9.210;2023-11-22T11:22:39;4.40;27.40
530;DHT22;251;48.704;9.210;2023-11-22T11:25:06;4.40;28.10
530;DHT22;251;48.704;9.210;2023-11-22T11:27:33;4.50;28.60
530;DHT22;251;48.704;9.210;2023-11-22T11:30:44;4.50;26.80
530;DHT22;251;48.704;9.210;2023-11-22T11:33:12;4.40;27.00
530;DHT22;251;48.704;9.210;2023-11-22T11:35:49;4.40;26.90
530;DHT22;251;48.704;9.210;2023-11-22T11:38:19;4.30;27.60
530;DHT22;251;48.704;9.210;2023-11-22T11:40:47;4.30;27.00
530;DHT22;251;48.704;9.210;2023-11-22T11:43:15;4.20;27.40
530;DHT22;251;48.704;9.210;2023-11-22T11:45:43;4.20;27.40
530;DHT22;251;48.704;9.210;2023-11-22T11:48:13;4.10;27.20
530;DHT22;251;48.704;9.210;2023-11-22T11:50:40;4.00;27.90
530;DHT22;251;48.704;9.210;2023-11-22T11:53:07;4.00;28.50
530;DHT22;251;48.704;9.210;2023-11-22T11:55:35;3.90;28.40
530;DHT22;251;48.704;9.210;2023-11-22T11:58:06;3.90;28.80
530;DHT22;251;48.704;9.210;2023-11-22T12:00:35;3.90;28.40
530;DHT22;251;48.704;9.210;2023-11-22T12:03:07;3.90;29.10
530;DHT22;251;48.704;9.210;2023-11-22T12:05:36;3.90;29.00
530;DHT22;251;48.704;9.210;2023-11-22T12:08:03;3.90;28.10
530;DHT22;251;48.704;9.210;2023-11-22T12:10:31;3.90;28.70
530;DHT22;251;48.704;9.210;2023-11-22T12:12:58;3.80;28.60
530;DHT22;251;48.704;9.210;2023-11-22T12:15:25;3.80;28.50
530;DHT22;251;48.704;9.210;2023-11-22T12:17:54;3.70;29.10
530;DHT22;251;48.704;9.210;2023-11-22T12:20:24;3.70;29.10
530;DHT22;251;48.704;9.210;2023-11-22T12:22:52;3.70;29.40
530;DHT22;251;48.704;9.210;2023-11-22T12:25:19;3.70;28.70
530;DHT22;251;48.704;9.210;2023-11-22T12:27:47;3.70;28.90
530;DHT22;251;48.704;9.210;2023-11-22T12:30:31;3.70;30.10
530;DHT22;251;48.704;9.210;2023-11-22T12:33:02;3.60;29.50
530;DHT22;251;48.704;9.210;2023-11-22T12:35:31;3.60;29.90
530;DHT22;251;48.704;9.210;2023-11-22T12:37:59;3.50;29.20
530;DHT22;251;48.704;9.210;2023-11-22T12:40:28;3.50;29.30
530;DHT22;251;48.704;9.210;2023-11-22T12:42:57;3.50;29.20
530;DHT22;251;48.704;9.210;2023-11-22T12:45:25;3.50;30.00
530;DHT22;251;48.704;9.210;2023-11-22T12:47:54;3.50;29.90
530;DHT22;251;48.704;9.210;2023-11-22T12:50:34;3.50;30.00
530;DHT22;251;48.704;9.210;2023-11-22T12:53:10;3.50;30.00
530;DHT22;251;48.704;9.210;2023-11-22T12:55:38;3.50;30.50
530;DHT22;251;48.704;9.210;2023-11-22T12:58:05;3.60;30.90
530;DHT22;251;48.704;9.210;2023-11-22T13:00:33;3.60;29.00
530;DHT22;251;48.704;9.210;2023-11-22T13:03:00;3.50;29.00
530;DHT22;251;48.704;9.210;2023-11-22T13:05:26;3.50;29.00
530;DHT22;251;48.704;9.210;2023-11-22T13:07:54;3.50;29.00
530;DHT22;251;48.704;9.210;2023-11-22T13:10:21;3.40;27.80
530;DHT22;251;48.704;9.210;2023-11-22T13:12:52;3.30;27.60
530;DHT22;251;48.704;9.210;2023-11-22T13:15:20;3.30;27.70
530;DHT22;251;48.704;9.210;2023-11-22T13:17:49;3.30;28.10
530;DHT22;251;48.704;9.210;2023-11-22T13:20:16;3.30;28.30
530;DHT22;251;48.704;9.210;2023-11-22T13:22:45;3.30;28.10
530;DHT22;251;48.704;9.210;2023-11-22T13:25:14;3.30;28.70
530;DHT22;251;48.704;9.210;2023-11-22T13:27:42;3.30;28.60
530;DHT22;251;48.704;9.210;2023-11-22T13:30:09;3.30;29.00
530;DHT22;251;48.704;9.210;2023-11-22T13:32:37;3.30;28.70
530;DHT22;251;48.704;9.210;2023-11-22T13:35:07;3.30;28.90
530;DHT22;251;48.704;9.210;2023-11-22T13:37:40;3.30;29.20
530;DHT22;251;48.704;9.210;2023-11-22T13:40:10;3.40;28.80
530;DHT22;251;48.704;9.210;2023-11-22T13:42:42;3.40;28.50
530;DHT22;251;48.704;9.210;2023-11-22T13:45:10;3.30;28.50
530;DHT22;251;48.704;9.210;2023-11-22T13:47:41;3.40;28.90
530;DHT22;251;48.704;9.210;2023-11-22T13:50:10;3.40;29.00
530;DHT22;251;48.704;9.210;2023-11-22T13:52:38;3.40;28.90
530;DHT22;251;48.704;9.210;2023-11-22T13:55:08;3.40;28.80
530;DHT22;251;48.704;9.210;2023-11-22T13:57:37;3.40;28.70
530;DHT22;251;48.704;9.210;2023-11-22T14:00:07;3.40;27.80
530;DHT22;251;48.704;9.210;2023-11-22T14:02:38;3.40;27.90
530;DHT22;251;48.704;9.210;2023-11-22T14:05:06;3.40;28.00
530;DHT22;251;48.704;9.210;2023-11-22T14:07:35;3.50;28.10
530;DHT22;251;48.704;9.210;2023-11-22T14:10:02;3.40;27.20
530;DHT22;251;48.704;9.210;2023-11-22T14:12:30;3.40;26.90
530;DHT22;251;48.704;9.210;2023-11-22T14:14:57;3.40;27.10
530;DHT22;251;48.704;9.210;2023-11-22T14:17:28;3.50;27.40
530;DHT22;251;48.704;9.210;2023-11-22T14:19:56;3.50;27.40
530;DHT22;251;48.704;9.210;2023-11-22T14:22:23;3.40;26.50
530;DHT22;251;48.704;9.210;2023-11-22T14:24:51;3.40;26.70
530;DHT22;251;48.704;9.210;2023-11-22T14:27:19;3.40;28.00
530;DHT22;251;48.704;9.210;2023-11-22T14:29:46;3.40;29.00
530;DHT22;251;48.704;9.210;2023-11-22T14:32:14;3.40;28.50
530;DHT22;251;48.704;9.210;2023-11-22T14:34:43;3.40;29.00
530;DHT22;251;48.704;9.210;2023-11-22T14:37:10;3.40;29.20
530;DHT22;251;48.704;9.210;2023-11-22T14:39:37;3.30;28.80
530;DHT22;251;48.704;9.210;2023-11-22T14:42:04;3.30;28.90
530;DHT22;251;48.704;9.210;2023-11-22T14:44:33;3.20;27.90
530;DHT22;251;48.704;9.210;2023-11-22T14:47:01;3.20;28.80
530;DHT22;251;48.704;9.210;2023-11-22T14:49:32;3.20;28.80
530;DHT22;251;48.704;9.210;2023-11-22T14:52:00;3.20;28.80
530;DHT22;251;48.704;9.210;2023-11-22T14:54:29;3.20;31.50
530;DHT22;251;48.704;9.210;2023-11-22T14:56:56;3.20;29.80
530;DHT22;251;48.704;9.210;2023-11-22T14:59:28;3.20;30.10
530;DHT22;251;48.704;9.210;2023-11-22T15:01:56;3.20;29.80
530;DHT22;251;48.704;9.210;2023-11-22T15:04:23;3.20;29.90
530;DHT22;251;48.704;9.210;2023-11-22T15:06:51;3.20;30.00
530;DHT22;251;48.704;9.210;2023-11-22T15:09:19;3.20;29.80
530;DHT22;251;48.704;9.210;2023-11-22T15:11:47;3.20;30.90
530;DHT22;251;48.704;9.210;2023-11-22T15:14:15;3.20;30.60
530;DHT22;251;48.704;9.210;2023-11-22T15:16:42;3.20;31.80
530;DHT22;251;48.704;9.210;2023-11-22T15:19:09;3.20;30.10
530;DHT22;251;48.704;9.210;2023-11-22T15:21:35;3.20;27.90
530;DHT22;251;48.704;9.210;2023-11-22T15:24:03;3.20;26.90
530;DHT22;251;48.704;9.210;2023-11-22T15:26:31;3.20;28.60
530;DHT22;251;48.704;9.210;2023-11-22T15:29:00;3.20;29.50
530;DHT22;251;48.704;9.210;2023-11-22T15:31:27;3.20;30.60
530;DHT22;251;48.704;9.210;2023-11-22T15:33:53;3.20;29.70
530;DHT22;251;48.704;9.210;2023-11-22T15:36:21;3.20;29.30
530;DHT22;251;48.704;9.210;2023-11-22T15:38:48;3.10;30.30
530;DHT22;251;48.704;9.210;2023-11-22T15:41:15;3.10;28.70
530;DHT22;251;48.704;9.210;2023-11-22T15:43:44;3.10;27.40
530;DHT22;251;48.704;9.210;2023-11-22T15:46:12;3.10;28.70
530;DHT22;251;48.704;9.210;2023-11-22T15:48:42;3.10;28.70
530;DHT22;251;48.704;9.210;2023-11-22T15:51:09;3.10;29.30
530;DHT22;251;48.704;9.210;2023-11-22T15:53:37;3.10;27.70
530;DHT22;251;48.704;9.210;2023-11-22T15:56:04;3.10;27.40
530;DHT22;251;48.704;9.210;2023-11-22T15:58:33;3.10;25.40
530;DHT22;251;48.704;9.210;2023-11-22T16:01:02;3.10;25.10
530;DHT22;251;48.704;9.210;2023-11-22T16:03:31;3.10;25.50
530;DHT22;251;48.704;9.210;2023-11-22T16:06:00;3.00;24.10
530;DHT22;251;48.704;9.210;2023-11-22T16:08:28;3.00;22.90
530;DHT22;251;48.704;9.210;2023-11-22T16:10:56;2.90;22.90
530;DHT22;251;48.704;9.210;2023-11-22T16:13:23;2.90;23.30
530;DHT22;251;48.704;9.210;2023-11-22T16:15:51;2.90;23.70
530;DHT22;251;48.704;9.210;2023-11-22T16:18:20;2.90;23.80
530;DHT22;251;48.704;9.210;2023-11-22T16:20:51;2.90;24.00
530;DHT22;251;48.704;9.210;2023-11-22T16:23:18;2.90;24.90
530;DHT22;251;48.704;9.210;2023-11-22T16:25:45;2.90;24.40
530;DHT22;251;48.704;9.210;2023-11-22T16:28:12;3.00;26.40
530;DHT22;251;48.704;9.210;2023-11-22T16:30:39;3.00;25.90
530;DHT22;251;48.704;9.210;2023-11-22T16:33:06;3.00;25.70
530;DHT22;251;48.704;9.210;2023-11-22T16:35:34;3.00;26.60
530;DHT22;251;48.704;9.210;2023-11-22T16:38:01;3.00;25.80
530;DHT22;251;48.704;9.210;2023-11-22T16:40:29;3.00;25.00
530;DHT22;251;48.704;9.210;2023-11-22T16:42:56;3.00;26.60
530;DHT22;251;48.704;9.210;2023-11-22T16:45:23;3.00;26.80
530;DHT22;251;48.704;9.210;2023-11-22T16:47:50;3.00;26.00
530;DHT22;251;48.704;9.210;2023-11-22T16:50:21;3.00;27.20
530;DHT22;251;48.704;9.210;2023-11-22T16:52:51;3.00;25.60
530;DHT22;251;48.704;9.210;2023-11-22T16:55:17;3.00;27.30
530;DHT22;251;48.704;9.210;2023-11-22T16:57:44;3.00;27.80